Cresskill, New Jersey
Current Conditions -  °F | °C
As of 1:51 AM on Saturday 29 Nov 2014 (Local Time) from KTEB Reporting Station
Few Clouds Few Clouds  
Wind Chill: 26°   Ceiling: Unl
Heat Index: 26°   Visibility: 10mi
Dew Point: 15°   Wind: 0mph
Humidity: 63%   Direction: NA
Pressure: 30.3"   Gusts: NA
Location:  40.94°N, 73.96°W
Report Text: KTEB 290651Z 00000KT 10SM FEW110 M03/M09 A3030 RMK AO2 SLP260 T10331094 $
Loading
Personal Weather Stations






























Interactive Weather Map New forecast layout! Learn more

10-Day Weather Forecast

Advertisements
Track Severe Weather on mobile